Oriole, Maryland
Current Conditions -  °F | °C
As of 7:54 PM on Monday 24 Nov 2014 (Local Time) from KSBY Reporting Station
Clear Clear  
Wind Chill: 68°   Ceiling: Unl
Heat Index: 68°   Visibility: 10mi
Dew Point: 61°   Wind: 12mph
Humidity: 78%   Direction: 220°SW
Pressure: 29.79"   Gusts: NA
Location:  38.1954°N, 75.7083°W
Report Text: KSBY 250054Z 22010KT 10SM CLR 20/16 A2979 RMK AO2 SLP091 T02000161
Loading
Personal Weather Stations






























Interactive Weather Map New forecast layout! Learn more

10-Day Weather Forecast

Advertisements
Track Severe Weather on mobile